createdAt,value
2022-10-16T00:01:26.343Z,72.55
2022-10-16T00:03:55.042Z,74.68
2022-10-16T00:06:24.918Z,72.75
2022-10-16T00:08:53.466Z,74.03
2022-10-16T00:11:24.220Z,72.45
2022-10-16T00:13:54.260Z,73.28
2022-10-16T00:16:24.133Z,75.40
2022-10-16T00:18:52.278Z,74.35
2022-10-16T00:21:24.485Z,73.55
2022-10-16T00:23:53.401Z,73.32
2022-10-16T00:26:22.165Z,73.85
2022-10-16T00:28:51.107Z,73.15
2022-10-16T00:31:21.113Z,73.63
2022-10-16T00:33:51.041Z,73.68
2022-10-16T00:36:21.509Z,72.07
2022-10-16T00:38:53.847Z,73.70
2022-10-16T00:41:23.808Z,72.80
2022-10-16T00:43:53.783Z,73.95
2022-10-16T00:46:25.042Z,73.30
2022-10-16T00:48:58.728Z,72.88
2022-10-16T00:51:32.190Z,73.05
2022-10-16T00:54:01.240Z,75.47
2022-10-16T00:56:30.229Z,75.72
2022-10-16T00:58:58.758Z,72.38
2022-10-16T01:01:27.399Z,73.45
2022-10-16T01:03:56.864Z,72.32
2022-10-16T01:06:30.742Z,72.00
2022-10-16T01:09:16.346Z,70.93
2022-10-16T01:11:56.509Z,72.30
2022-10-16T01:14:28.622Z,75.60
2022-10-16T01:17:02.381Z,73.22
2022-10-16T01:19:46.238Z,71.50
2022-10-16T01:22:15.795Z,72.43
2022-10-16T01:27:27.571Z,68.97
2022-10-16T01:30:00.685Z,72.18
2022-10-16T01:32:35.624Z,70.55
2022-10-16T01:35:07.043Z,72.47
2022-10-16T01:37:40.642Z,73.15
2022-10-16T01:40:12.883Z,70.05
2022-10-16T01:42:46.872Z,72.05
2022-10-16T01:45:19.145Z,70.47
2022-10-16T01:47:49.702Z,72.82
2022-10-16T01:50:20.058Z,70.60
2022-10-16T01:52:53.847Z,69.57
2022-10-16T01:55:27.876Z,72.38
2022-10-16T01:57:58.552Z,71.05
2022-10-16T02:00:27.855Z,70.63
2022-10-16T02:02:58.081Z,71.18
2022-10-16T02:05:30.384Z,71.00
2022-10-16T02:08:00.558Z,71.18
2022-10-16T02:10:32.673Z,73.05
2022-10-16T02:13:08.262Z,76.38
2022-10-16T02:15:36.445Z,70.72
2022-10-16T02:18:05.544Z,72.38
2022-10-16T02:20:38.824Z,72.47
2022-10-16T02:23:10.265Z,73.25
2022-10-16T02:25:43.382Z,70.28
2022-10-16T02:28:20.062Z,70.18
2022-10-16T02:30:53.605Z,72.13
2022-10-16T02:33:24.717Z,70.57
2022-10-16T02:35:53.808Z,71.00
2022-10-16T02:38:23.896Z,69.88
2022-10-16T02:40:52.386Z,70.43
2022-10-16T02:43:22.518Z,71.00
2022-10-16T02:45:50.618Z,74.35
2022-10-16T02:48:18.919Z,70.78
2022-10-16T02:50:47.128Z,72.28
2022-10-16T02:53:15.488Z,72.53
2022-10-16T02:55:43.579Z,71.50
2022-10-16T02:58:11.999Z,72.80
2022-10-16T03:00:41.646Z,75.70
2022-10-16T03:03:10.028Z,72.25
2022-10-16T03:05:38.475Z,72.47
2022-10-16T03:08:06.904Z,72.25
2022-10-16T03:10:35.119Z,71.00
2022-10-16T03:13:03.672Z,72.13
2022-10-16T03:15:31.837Z,73.30
2022-10-16T03:18:01.798Z,71.75
2022-10-16T03:20:29.931Z,72.93
2022-10-16T03:22:58.277Z,72.20
2022-10-16T03:25:26.457Z,71.78
2022-10-16T03:27:54.712Z,70.60
2022-10-16T03:30:23.073Z,71.85
2022-10-16T03:32:54.947Z,72.63
2022-10-16T03:35:25.439Z,71.90
2022-10-16T03:37:54.055Z,72.68
2022-10-16T03:40:22.220Z,72.50
2022-10-16T03:42:50.499Z,72.35
2022-10-16T03:45:19.021Z,71.78
2022-10-16T03:47:48.455Z,72.28
2022-10-16T03:50:16.801Z,71.85
2022-10-16T03:52:46.607Z,72.82
2022-10-16T03:55:14.772Z,70.90
2022-10-16T03:57:43.012Z,73.25
2022-10-16T04:00:12.892Z,71.65
2022-10-16T04:02:42.119Z,72.45
2022-10-16T04:05:10.929Z,73.47
2022-10-16T04:07:39.715Z,73.32
2022-10-16T04:10:10.218Z,75.35
2022-10-16T04:12:38.634Z,73.30
2022-10-16T04:15:07.269Z,73.57
2022-10-16T04:17:35.619Z,73.55
2022-10-16T04:20:03.685Z,72.57
2022-10-16T04:22:32.264Z,73.97
2022-10-16T04:25:00.461Z,75.10
2022-10-16T04:27:32.174Z,73.30
2022-10-16T04:30:00.406Z,72.38
2022-10-16T04:32:28.839Z,75.43
2022-10-16T04:34:56.952Z,72.60
2022-10-16T04:37:27.534Z,74.95
2022-10-16T04:39:56.349Z,74.57
2022-10-16T04:42:24.808Z,72.88
2022-10-16T04:44:54.214Z,72.97
2022-10-16T04:47:22.680Z,74.00
2022-10-16T04:49:50.865Z,73.82
2022-10-16T04:52:20.003Z,72.93
2022-10-16T04:54:48.221Z,73.82
2022-10-16T04:57:16.530Z,73.20
2022-10-16T04:59:44.639Z,73.53
2022-10-16T05:02:14.388Z,72.78
2022-10-16T05:04:42.551Z,71.97
2022-10-16T05:07:11.044Z,73.47
2022-10-16T05:09:39.205Z,75.10
2022-10-16T05:12:07.580Z,71.60
2022-10-16T05:14:35.696Z,71.28
2022-10-16T05:17:04.286Z,72.57
2022-10-16T05:19:33.719Z,73.30
2022-10-16T05:22:02.194Z,72.10
2022-10-16T05:24:30.381Z,72.38
2022-10-16T05:26:59.009Z,72.28
2022-10-16T05:29:27.233Z,71.55
2022-10-16T05:31:55.866Z,75.35
2022-10-16T05:34:24.041Z,73.07
2022-10-16T05:36:53.714Z,71.75
2022-10-16T05:39:21.817Z,72.25
2022-10-16T05:41:51.821Z,73.55
2022-10-16T05:44:20.299Z,72.75
2022-10-16T05:46:49.368Z,71.38
2022-10-16T05:49:17.746Z,76.57
2022-10-16T05:51:46.733Z,71.78
2022-10-16T05:54:16.883Z,72.63
2022-10-16T05:56:45.921Z,71.93
2022-10-16T05:59:14.499Z,72.47
2022-10-16T06:01:43.199Z,71.82
2022-10-16T06:06:45.450Z,72.43
2022-10-16T06:09:13.584Z,72.20
2022-10-16T06:11:43.323Z,81.22
2022-10-16T06:14:11.507Z,78.78
2022-10-16T06:16:40.520Z,80.80
2022-10-16T06:19:09.287Z,79.40
2022-10-16T06:21:37.670Z,79.80
2022-10-16T06:24:06.291Z,78.32
2022-10-16T06:26:34.812Z,81.68
2022-10-16T06:29:04.399Z,78.45
2022-10-16T06:31:34.410Z,83.05
2022-10-16T06:34:05.687Z,77.43
2022-10-16T06:36:34.006Z,72.78
2022-10-16T06:39:02.243Z,73.78
2022-10-16T06:41:30.580Z,72.32
2022-10-16T06:44:00.013Z,75.97
2022-10-16T06:46:29.759Z,72.03
2022-10-16T06:48:57.887Z,86.90
2022-10-16T06:51:27.032Z,75.80
2022-10-16T06:54:05.142Z,71.78
2022-10-16T06:56:35.106Z,69.13
2022-10-16T06:59:04.318Z,63.95
2022-10-16T07:01:34.776Z,63.72
2022-10-16T07:04:03.915Z,57.35
2022-10-16T07:06:34.929Z,56.50
2022-10-16T07:09:09.097Z,55.47
2022-10-16T07:11:38.997Z,52.50
2022-10-16T07:14:11.091Z,49.58
2022-10-16T07:16:40.987Z,50.28
2022-10-16T07:19:10.238Z,49.40
2022-10-16T07:21:38.844Z,45.78
2022-10-16T07:24:08.935Z,48.15
2022-10-16T07:26:40.274Z,45.88
2022-10-16T07:29:13.466Z,49.90
2022-10-16T07:31:43.388Z,43.58
2022-10-16T07:34:12.527Z,41.65
2022-10-16T07:39:14.126Z,38.95
2022-10-16T07:41:42.632Z,33.67
2022-10-16T07:44:10.713Z,29.85
2022-10-16T07:46:39.448Z,29.42
2022-10-16T07:49:08.855Z,27.30
2022-10-16T07:51:39.176Z,25.45
2022-10-16T07:54:07.501Z,25.85
2022-10-16T07:56:37.639Z,23.30
2022-10-16T07:59:08.067Z,20.65
2022-10-16T08:01:36.378Z,22.73
2022-10-16T08:06:38.850Z,19.65
2022-10-16T08:09:07.157Z,22.00
2022-10-16T08:11:35.987Z,23.80
2022-10-16T08:14:04.420Z,21.73
2022-10-16T08:16:33.020Z,18.95
2022-10-16T08:19:01.284Z,20.08
2022-10-16T08:21:29.689Z,15.50
2022-10-16T08:24:00.037Z,15.93
2022-10-16T08:26:29.613Z,13.43
2022-10-16T08:28:58.296Z,12.20
2022-10-16T08:31:28.279Z,11.68
2022-10-16T08:33:56.540Z,12.43
2022-10-16T08:36:24.855Z,10.75
2022-10-16T08:38:55.196Z,11.32
2022-10-16T08:41:50.076Z,11.82
2022-10-16T08:44:37.092Z,10.95
2022-10-16T08:47:15.088Z,10.20
2022-10-16T08:49:48.786Z,10.60
2022-10-16T08:52:17.123Z,10.85
2022-10-16T08:54:49.242Z,10.60
2022-10-16T08:57:24.347Z,11.25
2022-10-16T08:59:55.660Z,9.90
2022-10-16T09:02:33.549Z,9.93
2022-10-16T09:05:23.680Z,10.77
2022-10-16T09:08:04.736Z,9.52
2022-10-16T09:10:45.738Z,8.80
2022-10-16T09:13:23.152Z,9.48
2022-10-16T09:15:56.999Z,8.95
2022-10-16T09:18:32.660Z,9.25
2022-10-16T09:21:08.699Z,9.25
2022-10-16T09:23:38.529Z,8.20
2022-10-16T09:26:11.333Z,8.40
2022-10-16T09:28:41.409Z,8.02
2022-10-16T09:31:17.260Z,8.40
2022-10-16T09:33:47.573Z,9.38
2022-10-16T09:36:16.191Z,8.82
2022-10-16T09:38:46.058Z,9.60
2022-10-16T09:41:19.737Z,9.90
2022-10-16T09:43:57.217Z,7.45
2022-10-16T09:46:31.080Z,8.63
2022-10-16T09:49:01.555Z,7.90
2022-10-16T09:51:32.548Z,6.82
2022-10-16T09:54:03.247Z,7.07
2022-10-16T09:56:33.995Z,9.57
2022-10-16T09:59:12.585Z,6.88
2022-10-16T10:01:43.477Z,6.95
2022-10-16T10:04:12.895Z,6.63
2022-10-16T10:06:46.500Z,8.93
2022-10-16T10:09:21.970Z,8.02
2022-10-16T10:11:56.471Z,6.43
2022-10-16T10:14:34.418Z,7.70
2022-10-16T10:17:14.710Z,8.07
2022-10-16T10:19:47.959Z,7.55
2022-10-16T10:22:20.726Z,7.43
2022-10-16T10:24:58.167Z,8.82
2022-10-16T10:27:34.632Z,8.68
2022-10-16T10:30:12.717Z,8.02
2022-10-16T10:32:48.796Z,7.97
2022-10-16T10:35:24.172Z,7.75
2022-10-16T10:38:04.263Z,7.82
2022-10-16T10:40:44.247Z,7.25
2022-10-16T10:43:21.240Z,8.60
2022-10-16T10:45:56.947Z,8.63
2022-10-16T10:48:48.666Z,6.72
2022-10-16T10:51:25.417Z,8.30
2022-10-16T10:54:03.851Z,8.68
2022-10-16T10:56:49.190Z,8.23
2022-10-16T10:59:41.079Z,7.88
2022-10-16T11:02:17.978Z,7.35
2022-10-16T11:05:19.582Z,8.13
2022-10-16T11:07:55.052Z,9.77
2022-10-16T11:10:27.487Z,8.60
2022-10-16T11:13:11.965Z,8.02
2022-10-16T11:15:45.387Z,8.52
2022-10-16T11:18:21.089Z,6.72
2022-10-16T11:20:53.316Z,7.35
2022-10-16T11:23:27.534Z,7.45
2022-10-16T11:25:59.367Z,5.95
2022-10-16T11:28:34.179Z,8.23
2022-10-16T11:31:07.432Z,6.22
2022-10-16T11:33:41.924Z,5.22
2022-10-16T11:36:15.641Z,6.53
2022-10-16T11:38:51.134Z,6.30
2022-10-16T11:41:29.214Z,4.90
2022-10-16T11:44:18.291Z,5.97
2022-10-16T11:47:02.746Z,6.10
2022-10-16T11:49:41.732Z,5.93
2022-10-16T11:52:17.391Z,5.35
2022-10-16T11:54:51.316Z,5.25
2022-10-16T11:57:23.084Z,5.78
2022-10-16T11:59:57.146Z,5.30
2022-10-16T12:02:35.850Z,5.85
2022-10-16T12:05:17.605Z,5.07
2022-10-16T12:07:53.496Z,5.07
2022-10-16T12:10:26.744Z,5.60
2022-10-16T12:12:57.495Z,4.88
2022-10-16T12:15:54.543Z,4.53
2022-10-16T12:18:24.067Z,6.07
2022-10-16T12:21:01.682Z,4.90
2022-10-16T12:23:30.027Z,4.82
2022-10-16T12:26:00.570Z,5.32
2022-10-16T12:28:30.101Z,4.63
2022-10-16T12:31:01.633Z,5.78
2022-10-16T12:33:32.729Z,4.45
2022-10-16T12:36:05.782Z,7.40
2022-10-16T12:38:40.499Z,5.50
2022-10-16T12:41:11.818Z,4.22
2022-10-16T12:43:44.227Z,3.72
2022-10-16T12:46:39.138Z,4.10
2022-10-16T12:49:22.273Z,4.82
2022-10-16T12:51:52.092Z,3.95
2022-10-16T12:54:29.718Z,4.25
2022-10-16T12:57:14.724Z,4.25
2022-10-16T12:59:52.853Z,4.18
2022-10-16T13:02:42.926Z,4.80
2022-10-16T13:05:22.167Z,4.25
2022-10-16T13:08:07.831Z,3.70
2022-10-16T13:10:42.873Z,4.22
2022-10-16T13:13:29.599Z,4.93
2022-10-16T13:16:13.029Z,3.55
2022-10-16T13:18:50.021Z,4.65
2022-10-16T13:21:33.325Z,4.50
2022-10-16T13:24:13.475Z,4.68
2022-10-16T13:26:48.208Z,3.97
2022-10-16T13:29:17.480Z,4.35
2022-10-16T13:31:46.960Z,4.05
2022-10-16T13:34:19.037Z,4.80
2022-10-16T13:36:51.220Z,4.63
2022-10-16T13:39:26.130Z,4.30
2022-10-16T13:42:08.066Z,4.38
2022-10-16T13:44:42.744Z,3.80
2022-10-16T13:47:19.004Z,5.75
2022-10-16T13:49:48.100Z,2.42
2022-10-16T13:52:21.410Z,4.32
2022-10-16T13:54:51.353Z,4.78
2022-10-16T13:57:27.211Z,5.68
2022-10-16T13:59:56.232Z,4.55
2022-10-16T14:02:28.639Z,4.07
2022-10-16T14:04:59.368Z,3.95
2022-10-16T14:07:29.922Z,6.43
2022-10-16T14:10:03.648Z,4.60
2022-10-16T14:12:32.944Z,5.18
2022-10-16T14:15:02.930Z,4.78
2022-10-16T14:17:33.797Z,4.90
2022-10-16T14:20:06.690Z,5.40
2022-10-16T14:22:37.994Z,5.15
2022-10-16T14:25:31.053Z,4.95
2022-10-16T14:30:37.252Z,4.32
2022-10-16T14:33:07.542Z,5.18
2022-10-16T14:35:37.728Z,4.90
2022-10-16T14:38:07.550Z,4.53
2022-10-16T14:40:39.167Z,5.68
2022-10-16T14:43:07.695Z,5.03
2022-10-16T14:45:37.475Z,6.97
2022-10-16T14:48:18.770Z,6.50
2022-10-16T14:50:48.995Z,5.80
2022-10-16T14:53:17.820Z,5.55
2022-10-16T14:55:49.301Z,3.97
2022-10-16T14:58:20.010Z,5.68
2022-10-16T15:00:48.855Z,4.45
2022-10-16T15:03:17.501Z,3.97
2022-10-16T15:05:46.053Z,3.83
2022-10-16T15:08:14.458Z,4.25
2022-10-16T15:10:45.167Z,4.43
2022-10-16T15:13:17.897Z,4.05
2022-10-16T15:15:47.771Z,5.13
2022-10-16T15:18:21.027Z,4.30
2022-10-16T15:20:51.859Z,4.43
2022-10-16T15:23:21.987Z,5.20
2022-10-16T15:25:51.672Z,5.47
2022-10-16T15:28:22.663Z,4.72
2022-10-16T15:30:52.254Z,6.18
2022-10-16T15:33:23.809Z,6.50
2022-10-16T15:35:53.876Z,6.70
2022-10-16T15:38:23.935Z,7.40
2022-10-16T15:40:52.613Z,7.60
2022-10-16T15:43:22.114Z,6.68
2022-10-16T15:46:02.168Z,8.27
2022-10-16T15:48:30.945Z,7.35
2022-10-16T15:50:59.385Z,7.85
2022-10-16T15:53:27.722Z,6.15
2022-10-16T15:55:56.044Z,6.22
2022-10-16T15:58:26.280Z,6.38
2022-10-16T16:00:58.354Z,11.68
2022-10-16T16:03:26.543Z,10.57
2022-10-16T16:05:55.125Z,8.85
2022-10-16T16:08:24.150Z,6.90
2022-10-16T16:11:00.304Z,7.60
2022-10-16T16:13:30.211Z,9.25
2022-10-16T16:15:59.057Z,6.32
2022-10-16T16:18:27.299Z,5.85
2022-10-16T16:20:55.756Z,6.55
2022-10-16T16:23:24.404Z,5.82
2022-10-16T16:26:06.318Z,5.82
2022-10-16T16:28:36.075Z,7.18
2022-10-16T16:31:04.915Z,7.72
2022-10-16T16:33:33.715Z,7.10
2022-10-16T16:36:04.802Z,17.98
2022-10-16T16:38:35.348Z,16.77
2022-10-16T16:41:13.495Z,12.32
2022-10-16T16:43:43.687Z,9.30
2022-10-16T16:46:12.820Z,9.57
2022-10-16T16:48:41.490Z,8.18
2022-10-16T16:51:16.133Z,7.38
2022-10-16T16:53:45.496Z,7.32
2022-10-16T16:56:14.429Z,7.50
2022-10-16T16:58:46.860Z,7.13
2022-10-16T17:01:19.733Z,6.75
2022-10-16T17:03:51.211Z,9.50
2022-10-16T17:06:21.210Z,8.90
2022-10-16T17:08:50.838Z,12.25
2022-10-16T17:11:21.770Z,12.50
2022-10-16T17:13:56.417Z,12.93
2022-10-16T17:16:28.482Z,13.20
2022-10-16T17:18:57.330Z,12.73
2022-10-16T17:21:26.935Z,12.07
2022-10-16T17:23:55.213Z,15.57
2022-10-16T17:26:24.106Z,15.73
2022-10-16T17:28:54.951Z,15.13
2022-10-16T17:31:26.592Z,14.30
2022-10-16T17:33:55.097Z,13.77
2022-10-16T17:36:24.783Z,14.80
2022-10-16T17:38:54.196Z,16.70
2022-10-16T17:41:24.685Z,15.23
2022-10-16T17:43:54.361Z,14.40
2022-10-16T17:46:24.928Z,14.02
2022-10-16T17:48:56.419Z,16.50
2022-10-16T17:51:31.016Z,15.50
2022-10-16T17:54:01.678Z,15.13
2022-10-16T17:56:31.232Z,16.05
2022-10-16T17:59:03.231Z,15.63
2022-10-16T18:01:33.933Z,17.08
2022-10-16T18:04:04.688Z,15.63
2022-10-16T18:06:33.949Z,14.73
2022-10-16T18:09:03.575Z,13.48
2022-10-16T18:11:32.811Z,13.02
2022-10-16T18:14:03.149Z,11.90
2022-10-16T18:16:32.362Z,12.18
2022-10-16T18:19:00.699Z,12.73
2022-10-16T18:21:29.917Z,13.32
2022-10-16T18:24:01.443Z,16.17
2022-10-16T18:26:30.701Z,14.05
2022-10-16T18:29:00.528Z,14.27
2022-10-16T18:31:30.881Z,17.30
2022-10-16T18:33:59.636Z,18.33
2022-10-16T18:36:30.614Z,24.40
2022-10-16T18:39:00.374Z,18.98
2022-10-16T18:41:29.478Z,14.25
2022-10-16T18:43:58.442Z,13.82
2022-10-16T18:46:27.643Z,15.63
2022-10-16T18:48:59.048Z,15.23
2022-10-16T18:51:30.585Z,15.57
2022-10-16T18:54:01.209Z,17.92
2022-10-16T18:56:31.976Z,15.55
2022-10-16T18:59:02.207Z,12.85
2022-10-16T19:01:33.314Z,15.57
2022-10-16T19:04:06.384Z,21.75
2022-10-16T19:06:36.444Z,21.13
2022-10-16T19:09:06.378Z,22.50
2022-10-16T19:11:37.962Z,18.63
2022-10-16T19:14:10.585Z,16.08
2022-10-16T19:16:39.789Z,17.13
2022-10-16T19:19:12.512Z,16.67
2022-10-16T19:21:41.230Z,14.30
2022-10-16T19:24:12.520Z,10.40
2022-10-16T19:26:42.172Z,10.88
2022-10-16T19:29:11.661Z,14.27
2022-10-16T19:31:40.861Z,13.50
2022-10-16T19:34:12.597Z,13.73
2022-10-16T19:36:43.312Z,12.40
2022-10-16T19:39:14.767Z,12.63
2022-10-16T19:41:47.399Z,22.63
2022-10-16T19:44:17.719Z,25.00
2022-10-16T19:46:48.122Z,21.35
2022-10-16T19:49:21.773Z,16.38
2022-10-16T19:51:51.910Z,16.08
2022-10-16T19:54:20.678Z,19.15
2022-10-16T19:56:49.144Z,18.50
2022-10-16T19:59:20.135Z,17.13
2022-10-16T20:01:49.209Z,17.45
2022-10-16T20:04:19.274Z,18.05
2022-10-16T20:06:47.789Z,17.20
2022-10-16T20:09:16.156Z,18.80
2022-10-16T20:11:44.613Z,17.13
2022-10-16T20:14:12.716Z,16.42
2022-10-16T20:16:41.249Z,17.25
2022-10-16T20:19:09.438Z,18.15
2022-10-16T20:21:39.151Z,16.85
2022-10-16T20:24:08.166Z,20.00
2022-10-16T20:26:37.594Z,19.45
2022-10-16T20:29:06.661Z,20.35
2022-10-16T20:31:35.528Z,22.38
2022-10-16T20:34:05.618Z,25.92
2022-10-16T20:36:35.437Z,26.65
2022-10-16T20:39:05.794Z,27.25
2022-10-16T20:41:34.260Z,25.95
2022-10-16T20:44:02.823Z,24.02
2022-10-16T20:46:31.264Z,23.42
2022-10-16T20:49:10.436Z,24.70
2022-10-16T20:51:45.567Z,25.73
2022-10-16T20:54:15.043Z,24.35
2022-10-16T20:56:44.088Z,24.77
2022-10-16T20:59:13.320Z,27.98
2022-10-16T21:01:42.134Z,39.38
2022-10-16T21:04:10.597Z,24.10
2022-10-16T21:06:40.095Z,23.75
2022-10-16T21:09:10.135Z,21.42
2022-10-16T21:11:40.350Z,25.77
2022-10-16T21:14:09.558Z,23.05
2022-10-16T21:16:38.641Z,22.20
2022-10-16T21:19:07.326Z,23.13
2022-10-16T21:21:38.221Z,21.98
2022-10-16T21:24:10.802Z,23.60
2022-10-16T21:26:43.312Z,22.10
2022-10-16T21:29:11.760Z,23.58
2022-10-16T21:31:40.972Z,24.20
2022-10-16T21:34:09.702Z,26.10
2022-10-16T21:36:40.657Z,23.33
2022-10-16T21:39:10.489Z,22.90
2022-10-16T21:41:39.226Z,24.95
2022-10-16T21:44:10.273Z,23.98
2022-10-16T21:46:39.778Z,21.95
2022-10-16T21:49:11.460Z,23.67
2022-10-16T21:51:42.911Z,21.67
2022-10-16T21:54:13.382Z,21.08
2022-10-16T21:56:41.636Z,20.15
2022-10-16T21:59:13.139Z,22.48
2022-10-16T22:01:42.064Z,21.98
2022-10-16T22:04:11.309Z,27.42
2022-10-16T22:06:40.491Z,25.88
2022-10-16T22:09:08.949Z,30.95
2022-10-16T22:11:38.567Z,31.48
2022-10-16T22:14:08.174Z,29.65
2022-10-16T22:16:38.941Z,30.58
2022-10-16T22:19:08.019Z,28.55
2022-10-16T22:21:37.616Z,26.98
2022-10-16T22:24:07.174Z,25.90
2022-10-16T22:26:36.524Z,26.30
2022-10-16T22:29:05.139Z,27.38
2022-10-16T22:31:33.927Z,25.55
2022-10-16T22:34:05.289Z,27.88
2022-10-16T22:36:34.459Z,23.92
2022-10-16T22:39:02.882Z,23.80
2022-10-16T22:41:31.401Z,23.50
2022-10-16T22:43:59.570Z,23.98
2022-10-16T22:46:29.794Z,23.13
2022-10-16T22:48:58.662Z,25.73
2022-10-16T22:51:28.766Z,23.27
2022-10-16T22:53:59.160Z,23.75
2022-10-16T22:56:28.044Z,23.27
2022-10-16T22:58:56.232Z,21.25
2022-10-16T23:01:27.876Z,21.08
2022-10-16T23:03:56.309Z,22.80
2022-10-16T23:06:25.281Z,21.65
2022-10-16T23:08:55.789Z,22.67
2022-10-16T23:11:24.988Z,24.27
2022-10-16T23:13:53.435Z,22.23
2022-10-16T23:16:23.985Z,22.83
2022-10-16T23:18:52.533Z,27.17
2022-10-16T23:21:23.886Z,23.80
2022-10-16T23:23:54.947Z,28.80
2022-10-16T23:26:25.344Z,24.88
2022-10-16T23:28:53.773Z,25.77
2022-10-16T23:31:22.241Z,30.58
2022-10-16T23:33:50.340Z,32.28
2022-10-16T23:36:21.643Z,30.80
2022-10-16T23:38:50.209Z,31.35
2022-10-16T23:41:21.214Z,29.05
2022-10-16T23:43:51.290Z,28.25
2022-10-16T23:46:19.994Z,27.13
2022-10-16T23:48:48.202Z,29.13
2022-10-16T23:51:16.809Z,28.23
2022-10-16T23:53:45.041Z,25.67
2022-10-16T23:56:13.659Z,26.08
2022-10-16T23:58:43.462Z,25.40
